Time;durP1;ratioP1;P1;durP2;ratioP2;P2;SDS_P1;SDS_P2;PMS_P1;PMS_P2;Temp;Humidity;BMP_temperature;BMP_pressure;BME280_temperature;BME280_humidity;BME280_pressure;Samples;Min_cycle;Max_cycle;Signal;HPM_P1;HPM_P2
2022/01/29 00:00:17;;;;;;;16.25;10.00;;;3.80;81.30;;;;;;5041150;28;20227;-77
2022/01/29 00:02:43;;;;;;;16.92;10.43;;;3.90;80.50;;;;;;5040469;28;20218;-75
2022/01/29 00:05:11;;;;;;;22.52;10.38;;;3.80;80.40;;;;;;5038210;28;20278;-76
2022/01/29 00:07:41;;;;;;;14.98;9.20;;;3.80;80.40;;;;;;5035821;28;20341;-77
2022/01/29 00:10:09;;;;;;;18.15;9.93;;;3.80;81.10;;;;;;5038884;28;20269;-77
2022/01/29 00:12:36;;;;;;;15.80;9.50;;;3.80;80.80;;;;;;5041541;28;20227;-76
2022/01/29 00:15:05;;;;;;;18.65;10.10;;;3.90;80.50;;;;;;5042946;28;20270;-79
2022/01/29 00:17:32;;;;;;;16.33;8.73;;;3.80;80.40;;;;;;5040314;28;20278;-77
2022/01/29 00:19:59;;;;;;;18.73;10.65;;;3.80;80.40;;;;;;5040475;28;20227;-78
2022/01/29 00:22:27;;;;;;;17.90;10.70;;;3.70;80.90;;;;;;5040282;28;20294;-77
2022/01/29 00:24:56;;;;;;;19.13;9.68;;;3.80;80.60;;;;;;5051615;28;20274;-78
2022/01/29 00:27:25;;;;;;;18.02;9.95;;;3.80;80.90;;;;;;5056322;28;20222;-78
2022/01/29 00:30:25;;;;;;;16.17;9.73;;;3.80;81.20;;;;;;5057727;28;20220;-77
2022/01/29 00:32:53;;;;;;;15.95;9.48;;;3.80;81.10;;;;;;5058559;28;20233;-77
2022/01/29 00:35:20;;;;;;;19.77;10.25;;;3.80;81.20;;;;;;5056269;28;20195;-77
2022/01/29 00:37:47;;;;;;;13.48;8.98;;;3.70;81.20;;;;;;5057318;28;20218;-77
2022/01/29 00:40:15;;;;;;;14.93;10.10;;;3.80;81.30;;;;;;5056801;28;20251;-78
2022/01/29 00:42:42;;;;;;;18.02;9.65;;;3.80;80.40;;;;;;5045001;28;20234;-77
2022/01/29 00:45:10;;;;;;;17.98;10.00;;;3.70;81.30;;;;;;5041182;28;20279;-77
2022/01/29 00:47:36;;;;;;;14.70;9.40;;;3.70;81.50;;;;;;5045604;28;20238;-77
2022/01/29 00:50:05;;;;;;;16.55;10.48;;;3.70;81.90;;;;;;5046335;28;20259;-78
2022/01/29 00:52:32;;;;;;;19.20;10.23;;;3.70;82.10;;;;;;5040980;28;20233;-77
2022/01/29 00:55:00;;;;;;;20.40;10.65;;;3.70;82.20;;;;;;5041584;28;20577;-78
2022/01/29 00:57:29;;;;;;;17.85;10.70;;;3.60;82.10;;;;;;5038986;28;20298;-77
2022/01/29 00:59:56;;;;;;;17.77;10.20;;;3.60;83.00;;;;;;5041138;28;20255;-77
2022/01/29 01:02:23;;;;;;;19.73;9.50;;;3.60;83.20;;;;;;5047271;28;20211;-79
2022/01/29 01:04:50;;;;;;;18.30;10.40;;;3.60;83.40;;;;;;5046169;28;20238;-77
2022/01/29 01:07:19;;;;;;;20.55;11.00;;;3.60;83.00;;;;;;5045384;28;20283;-77
2022/01/29 01:09:46;;;;;;;20.63;10.35;;;3.60;82.80;;;;;;5040733;28;20219;-77
2022/01/29 01:12:13;;;;;;;19.92;10.82;;;3.60;82.90;;;;;;5044240;28;20246;-79
2022/01/29 01:14:44;;;;;;;19.98;11.23;;;3.60;82.80;;;;;;5052524;28;20211;-79
2022/01/29 01:17:11;;;;;;;18.25;10.82;;;3.60;82.60;;;;;;5047316;28;20211;-77
2022/01/29 01:19:38;;;;;;;17.80;9.80;;;3.60;82.70;;;;;;5040979;28;20318;-76
2022/01/29 01:22:05;;;;;;;19.38;11.32;;;3.50;82.90;;;;;;5046628;28;20694;-74
2022/01/29 01:24:34;;;;;;;19.27;11.20;;;3.50;83.20;;;;;;5051368;28;20298;-75
2022/01/29 01:27:01;;;;;;;20.27;11.70;;;3.50;83.40;;;;;;5048599;28;20203;-76
2022/01/29 01:29:28;;;;;;;17.70;10.70;;;3.40;83.80;;;;;;5044585;28;20211;-77
2022/01/29 01:31:55;;;;;;;17.13;10.00;;;3.40;84.20;;;;;;5044676;28;20229;-77
2022/01/29 01:34:24;;;;;;;17.98;11.07;;;3.40;84.20;;;;;;5049703;28;20222;-76
2022/01/29 01:36:55;;;;;;;16.77;10.00;;;3.40;84.20;;;;;;5044348;28;20215;-76
2022/01/29 01:39:27;;;;;;;18.73;10.38;;;3.30;84.30;;;;;;5044479;28;20207;-76
2022/01/29 01:42:02;;;;;;;24.00;11.60;;;3.40;84.40;;;;;;5038303;28;20672;-77
2022/01/29 01:44:34;;;;;;;20.15;11.15;;;3.40;84.20;;;;;;5038123;28;20207;-76
2022/01/29 01:47:01;;;;;;;18.17;11.07;;;3.40;84.60;;;;;;5036695;28;20206;-76
2022/01/29 01:49:28;;;;;;;20.02;11.20;;;3.40;85.00;;;;;;5035651;28;20257;-76
2022/01/29 01:51:55;;;;;;;17.15;10.05;;;3.40;84.20;;;;;;5035615;28;20235;-76
2022/01/29 01:54:22;;;;;;;17.20;10.40;;;3.40;84.20;;;;;;5036727;28;20214;-76
2022/01/29 01:56:49;;;;;;;18.98;10.50;;;3.40;84.20;;;;;;5035196;28;20279;-75
2022/01/29 01:59:18;;;;;;;17.70;11.10;;;3.40;84.20;;;;;;5036125;28;20211;-76
2022/01/29 02:01:45;;;;;;;21.50;11.43;;;3.40;84.20;;;;;;5036347;28;20238;-76
2022/01/29 02:04:12;;;;;;;20.15;10.80;;;3.40;84.20;;;;;;5035896;28;20234;-77
2022/01/29 02:06:39;;;;;;;17.58;9.77;;;3.40;84.20;;;;;;5036847;28;20207;-76
2022/01/29 02:09:06;;;;;;;17.98;10.43;;;3.30;84.10;;;;;;5036130;28;20257;-77
2022/01/29 02:11:33;;;;;;;21.05;10.18;;;3.30;84.70;;;;;;5035147;28;20326;-77
2022/01/29 02:14:00;;;;;;;24.33;11.27;;;3.30;85.10;;;;;;5035756;28;20219;-75
2022/01/29 02:16:31;;;;;;;19.08;11.25;;;3.20;85.30;;;;;;5035321;28;20621;-76
2022/01/29 02:18:58;;;;;;;18.77;11.20;;;3.20;85.90;;;;;;5036414;28;20215;-75
2022/01/29 02:21:27;;;;;;;21.85;12.90;;;3.20;86.40;;;;;;5040238;28;20251;-77
2022/01/29 02:23:54;;;;;;;16.73;10.30;;;3.20;86.10;;;;;;5034830;28;20309;-76
2022/01/29 02:26:21;;;;;;;16.05;10.20;;;3.20;87.00;;;;;;5034338;28;20246;-77
2022/01/29 02:28:49;;;;;;;19.67;11.48;;;3.10;86.30;;;;;;5034381;28;20245;-76
2022/01/29 02:31:15;;;;;;;19.48;11.00;;;3.10;86.60;;;;;;5034764;28;20280;-76
2022/01/29 02:33:44;;;;;;;20.50;11.52;;;3.10;87.40;;;;;;5034934;28;20260;-76
2022/01/29 02:36:10;;;;;;;19.67;11.38;;;3.10;88.00;;;;;;5035171;28;20298;-78
2022/01/29 02:38:39;;;;;;;23.98;12.00;;;3.10;88.30;;;;;;5037708;28;20678;-78
2022/01/29 02:41:06;;;;;;;18.90;11.65;;;3.10;88.40;;;;;;5034342;28;20318;-76
2022/01/29 02:43:40;;;;;;;23.02;11.93;;;3.10;88.90;;;;;;5037090;28;20253;-77
2022/01/29 02:46:19;;;;;;;19.55;12.43;;;3.10;88.80;;;;;;5036474;28;20202;-77
2022/01/29 02:48:47;;;;;;;22.70;13.23;;;3.20;88.10;;;;;;5036437;28;20237;-76
2022/01/29 02:51:14;;;;;;;22.75;13.40;;;3.10;88.00;;;;;;5034408;28;20234;-77
2022/01/29 02:53:42;;;;;;;23.48;13.90;;;3.10;87.40;;;;;;5034931;28;20210;-76
2022/01/29 02:56:09;;;;;;;20.48;13.05;;;3.10;88.00;;;;;;5033391;28;20237;-77
2022/01/29 02:58:37;;;;;;;22.52;13.80;;;3.20;88.00;;;;;;5033576;28;20257;-76
2022/01/29 03:01:05;;;;;;;22.48;13.90;;;3.20;88.00;;;;;;5033738;28;20262;-77
2022/01/29 03:03:31;;;;;;;21.70;13.65;;;3.10;87.80;;;;;;5042801;28;20239;-78
2022/01/29 03:05:58;;;;;;;22.83;13.50;;;3.10;87.40;;;;;;5034282;28;20211;-78
2022/01/29 03:08:25;;;;;;;26.45;15.10;;;3.10;87.20;;;;;;5034005;28;20242;-77
2022/01/29 03:10:53;;;;;;;27.15;15.73;;;3.10;86.80;;;;;;5034511;28;20231;-77
2022/01/29 03:13:20;;;;;;;26.83;15.77;;;3.10;87.10;;;;;;5046823;28;20274;-80
2022/01/29 03:15:47;;;;;;;23.83;14.15;;;3.00;87.40;;;;;;5048484;28;20246;-78
2022/01/29 03:18:14;;;;;;;24.55;14.98;;;3.00;88.00;;;;;;5040222;28;20250;-77
2022/01/29 03:20:41;;;;;;;22.27;14.30;;;3.00;88.20;;;;;;5033840;28;20262;-80
2022/01/29 03:23:08;;;;;;;26.25;15.38;;;3.00;88.00;;;;;;5034056;28;20199;-77
2022/01/29 03:25:35;;;;;;;21.08;13.48;;;3.00;88.00;;;;;;5034296;28;20269;-77
2022/01/29 03:28:04;;;;;;;26.15;14.82;;;3.00;88.40;;;;;;5041014;28;20213;-80
2022/01/29 03:30:31;;;;;;;24.42;14.40;;;3.00;88.00;;;;;;5053800;28;20219;-81
2022/01/29 03:32:58;;;;;;;21.33;13.35;;;3.00;87.90;;;;;;5055981;28;20238;-81
2022/01/29 03:35:25;;;;;;;24.77;13.75;;;3.00;87.90;;;;;;5042816;28;20211;-77
2022/01/29 03:37:52;;;;;;;26.40;13.65;;;3.00;87.90;;;;;;5037392;28;20242;-77
2022/01/29 03:40:19;;;;;;;25.67;14.15;;;3.00;87.90;;;;;;5080824;23;20226;-79
2022/01/29 03:42:58;;;;;;;26.13;14.65;;;2.90;87.90;;;;;;5060452;28;20198;-79
2022/01/29 03:45:26;;;;;;;20.45;12.13;;;3.00;88.00;;;;;;5063017;28;20210;-79
2022/01/29 03:47:53;;;;;;;21.30;13.10;;;3.00;88.00;;;;;;5062578;28;20210;-78
2022/01/29 03:50:20;;;;;;;21.17;13.07;;;3.00;87.90;;;;;;5062778;28;20318;-79
2022/01/29 03:52:47;;;;;;;23.55;13.95;;;3.10;87.90;;;;;;5064148;28;20234;-79
2022/01/29 03:55:14;;;;;;;22.45;13.20;;;3.00;86.90;;;;;;5064780;28;20322;-79
2022/01/29 03:57:41;;;;;;;22.65;13.00;;;3.00;86.90;;;;;;5064746;28;20226;-78
2022/01/29 04:00:09;;;;;;;21.48;12.73;;;3.00;86.80;;;;;;5066511;28;20656;-78
2022/01/29 04:02:37;;;;;;;20.17;11.82;;;3.00;87.00;;;;;;5065801;28;20617;-78
2022/01/29 04:05:05;;;;;;;21.33;12.77;;;3.00;86.90;;;;;;5064722;28;20377;-79
2022/01/29 04:07:32;;;;;;;23.70;12.60;;;3.00;85.90;;;;;;5065095;28;20207;-79
2022/01/29 04:09:59;;;;;;;22.95;13.25;;;3.00;86.10;;;;;;5060658;28;20241;-79
2022/01/29 04:12:29;;;;;;;22.80;12.50;;;3.00;85.80;;;;;;5065337;28;20285;-78
2022/01/29 04:14:58;;;;;;;18.75;11.63;;;3.10;86.20;;;;;;5062718;28;20661;-79
2022/01/29 04:17:25;;;;;;;21.25;12.30;;;3.10;85.00;;;;;;5063332;28;20210;-79
2022/01/29 04:19:53;;;;;;;19.65;12.57;;;3.10;84.90;;;;;;5065165;28;20298;-79
2022/01/29 04:22:20;;;;;;;23.27;13.20;;;3.10;84.30;;;;;;5068456;28;20210;-79
2022/01/29 04:24:47;;;;;;;17.92;10.95;;;3.00;84.50;;;;;;5065688;28;20270;-78
2022/01/29 04:27:18;;;;;;;26.85;12.45;;;3.10;84.70;;;;;;5076505;28;20194;-78
2022/01/29 04:29:55;;;;;;;24.73;13.25;;;3.10;84.40;;;;;;5073084;28;20322;-79
2022/01/29 04:32:30;;;;;;;25.80;13.13;;;3.10;83.90;;;;;;5064114;28;20226;-79
2022/01/29 04:34:58;;;;;;;23.38;12.27;;;3.10;83.90;;;;;;5063554;28;20258;-79
2022/01/29 04:37:25;;;;;;;23.02;12.57;;;3.00;83.90;;;;;;5063132;28;20238;-79
2022/01/29 04:39:52;;;;;;;19.15;11.73;;;3.00;84.40;;;;;;5062560;28;20256;-80
2022/01/29 04:42:19;;;;;;;27.52;12.48;;;3.00;84.30;;;;;;5062668;28;20210;-78
2022/01/29 04:44:46;;;;;;;22.95;12.77;;;3.00;84.90;;;;;;5063026;28;20658;-79
2022/01/29 04:47:13;;;;;;;21.02;12.00;;;3.00;84.80;;;;;;5061399;28;20658;-79
2022/01/29 04:49:40;;;;;;;22.30;12.55;;;3.00;85.30;;;;;;5063701;28;20206;-80
2022/01/29 04:52:08;;;;;;;25.20;13.50;;;3.00;85.40;;;;;;5062726;28;20229;-79
2022/01/29 04:54:35;;;;;;;20.63;11.82;;;3.00;85.50;;;;;;5064262;28;20305;-79
2022/01/29 04:57:02;;;;;;;21.05;12.10;;;2.90;85.90;;;;;;5066602;28;20217;-78
2022/01/29 04:59:29;;;;;;;23.88;12.80;;;3.00;86.20;;;;;;5070060;28;20577;-79
2022/01/29 05:01:56;;;;;;;18.63;10.38;;;2.90;86.20;;;;;;5070017;28;20211;-79
2022/01/29 05:04:23;;;;;;;24.30;12.10;;;2.90;86.20;;;;;;5070933;28;20569;-78
2022/01/29 05:06:49;;;;;;;23.83;12.90;;;2.90;86.10;;;;;;5070161;28;20206;-79
2022/01/29 05:09:18;;;;;;;18.90;12.13;;;2.90;86.20;;;;;;5063168;28;20591;-78
2022/01/29 05:11:48;;;;;;;22.13;11.77;;;2.90;86.10;;;;;;5058856;28;20234;-78
2022/01/29 05:14:25;;;;;;;19.92;10.70;;;2.90;86.10;;;;;;5061098;28;20650;-78
2022/01/29 05:17:19;;;;;;;21.38;10.82;;;2.90;86.10;;;;;;5064143;28;20214;-78
2022/01/29 05:28:01;;;;;;;23.52;11.77;;;2.90;86.60;;;;;;5028095;28;20202;-79
2022/01/29 05:30:27;;;;;;;20.08;11.13;;;2.90;86.20;;;;;;5060671;28;20262;-79
2022/01/29 05:32:54;;;;;;;19.63;11.10;;;2.90;86.20;;;;;;5059772;28;20317;-79
2022/01/29 05:35:21;;;;;;;20.92;10.10;;;2.90;86.10;;;;;;5059507;28;20210;-80
2022/01/29 05:37:50;;;;;;;17.98;10.23;;;2.90;85.90;;;;;;5061081;28;20597;-79
2022/01/29 05:40:19;;;;;;;19.05;11.10;;;2.90;86.30;;;;;;5060571;28;20242;-79
2022/01/29 05:42:46;;;;;;;18.80;10.40;;;2.90;86.60;;;;;;5060449;28;20674;-79
2022/01/29 05:45:13;;;;;;;18.77;11.00;;;2.90;86.70;;;;;;5062827;28;20233;-79
2022/01/29 05:47:40;;;;;;;21.00;10.50;;;2.90;86.30;;;;;;5062957;28;20203;-78
2022/01/29 05:50:08;;;;;;;17.35;10.50;;;2.90;86.40;;;;;;5076751;28;20218;-78
2022/01/29 05:52:35;;;;;;;19.08;9.20;;;2.90;85.90;;;;;;5077069;28;20260;-79
2022/01/29 05:55:02;;;;;;;16.35;9.70;;;2.90;85.50;;;;;;5074555;28;20203;-78
2022/01/29 05:57:30;;;;;;;22.52;10.43;;;3.00;84.80;;;;;;5077662;28;20179;-79
2022/01/29 05:59:57;;;;;;;14.93;8.43;;;3.00;83.90;;;;;;5070791;28;20649;-78
2022/01/29 06:02:24;;;;;;;18.23;10.18;;;3.10;84.00;;;;;;5057483;28;20221;-79
2022/01/29 06:04:50;;;;;;;16.52;10.02;;;3.10;83.10;;;;;;5058956;28;20225;-79
2022/01/29 06:07:17;;;;;;;19.27;9.75;;;3.10;82.90;;;;;;5067962;28;20206;-78
2022/01/29 06:09:45;;;;;;;18.48;10.93;;;3.10;81.80;;;;;;5062624;28;20686;-79
2022/01/29 06:12:12;;;;;;;15.88;10.27;;;3.00;81.70;;;;;;5063023;28;20227;-79
2022/01/29 06:14:40;;;;;;;20.92;11.02;;;3.10;82.50;;;;;;5065985;28;20258;-79
2022/01/29 06:17:07;;;;;;;15.38;9.60;;;3.10;81.00;;;;;;5062210;28;20215;-79
2022/01/29 06:19:34;;;;;;;15.60;9.57;;;3.10;80.60;;;;;;5060673;28;20203;-79
2022/01/29 06:22:06;;;;;;;19.05;10.57;;;3.00;80.50;;;;;;5058497;28;20289;-79
2022/01/29 06:24:33;;;;;;;19.25;9.85;;;3.10;79.90;;;;;;5057752;28;20194;-78
2022/01/29 06:27:00;;;;;;;16.38;10.50;;;3.10;79.80;;;;;;5058401;28;20222;-79
2022/01/29 06:29:27;;;;;;;16.35;10.48;;;3.10;79.90;;;;;;5059894;28;20286;-79
2022/01/29 06:31:55;;;;;;;17.10;10.65;;;3.10;79.90;;;;;;5061487;28;20206;-79
2022/01/29 06:34:22;;;;;;;17.63;9.70;;;3.10;79.80;;;;;;5063281;28;20529;-80
2022/01/29 06:36:49;;;;;;;14.65;9.50;;;3.10;79.10;;;;;;5057028;28;20234;-79
2022/01/29 06:39:16;;;;;;;16.00;9.27;;;3.10;78.10;;;;;;5068384;28;20232;-79
2022/01/29 06:41:43;;;;;;;16.55;9.63;;;3.10;77.70;;;;;;5076009;28;20219;-79
2022/01/29 06:44:10;;;;;;;18.30;10.45;;;3.00;77.70;;;;;;5076672;28;20194;-79
2022/01/29 06:46:37;;;;;;;16.25;9.77;;;3.10;77.40;;;;;;5076500;28;20202;-78
2022/01/29 06:49:05;;;;;;;16.88;10.73;;;3.10;76.70;;;;;;5076746;28;20225;-78
2022/01/29 06:51:32;;;;;;;13.63;9.57;;;3.20;75.80;;;;;;5074214;28;20245;-78
2022/01/29 06:53:59;;;;;;;15.25;10.30;;;3.10;75.90;;;;;;5074711;28;20226;-79
2022/01/29 06:56:26;;;;;;;17.38;10.65;;;3.20;75.50;;;;;;5073830;28;20210;-79
2022/01/29 06:58:53;;;;;;;19.05;11.77;;;3.20;75.30;;;;;;5062994;28;20212;-78
2022/01/29 07:01:20;;;;;;;15.93;10.13;;;3.30;75.10;;;;;;5067101;28;20241;-79
2022/01/29 07:03:47;;;;;;;19.33;10.50;;;3.30;74.80;;;;;;5066041;28;20206;-79
2022/01/29 07:06:15;;;;;;;15.88;10.30;;;3.30;74.50;;;;;;5068233;28;20210;-79
2022/01/29 07:08:42;;;;;;;18.35;11.65;;;3.30;74.20;;;;;;5072549;28;20206;-79
2022/01/29 07:11:09;;;;;;;14.68;10.20;;;3.40;74.10;;;;;;5069052;28;20244;-79
2022/01/29 07:13:36;;;;;;;18.98;10.90;;;3.40;73.70;;;;;;5064189;28;20265;-79
2022/01/29 07:16:03;;;;;;;16.98;10.60;;;3.50;73.50;;;;;;5063368;28;20279;-80
2022/01/29 07:18:30;;;;;;;16.50;10.13;;;3.50;72.80;;;;;;5068921;28;20305;-79
2022/01/29 07:20:57;;;;;;;15.95;9.68;;;3.60;71.80;;;;;;5072370;28;20285;-79
2022/01/29 07:23:25;;;;;;;16.10;10.35;;;3.60;72.50;;;;;;5068661;28;20417;-79
2022/01/29 07:25:52;;;;;;;17.83;10.70;;;3.60;71.20;;;;;;5074535;28;20206;-78
2022/01/29 07:28:19;;;;;;;15.15;9.82;;;3.60;71.20;;;;;;5073059;28;20221;-79
2022/01/29 07:30:46;;;;;;;17.55;9.63;;;3.60;70.80;;;;;;5061442;28;20595;-79
2022/01/29 07:33:13;;;;;;;15.95;10.75;;;3.60;70.50;;;;;;5056933;28;20230;-79
2022/01/29 07:35:39;;;;;;;22.45;10.25;;;3.60;70.30;;;;;;5059372;28;20281;-79
2022/01/29 07:38:06;;;;;;;15.18;9.98;;;3.70;70.20;;;;;;5064604;28;20206;-79
2022/01/29 07:40:34;;;;;;;16.48;9.65;;;3.70;70.10;;;;;;5063639;28;20238;-79
2022/01/29 07:43:01;;;;;;;13.27;8.85;;;3.70;69.60;;;;;;5060594;28;20229;-79
2022/01/29 07:45:29;;;;;;;15.43;10.48;;;3.70;68.90;;;;;;5058576;28;20246;-79
2022/01/29 07:47:56;;;;;;;14.45;9.65;;;3.70;68.90;;;;;;5058636;28;20202;-79
2022/01/29 07:50:23;;;;;;;16.10;9.98;;;3.70;68.80;;;;;;5062657;28;20569;-80
2022/01/29 07:52:50;;;;;;;13.27;8.93;;;3.70;69.10;;;;;;5060937;28;20230;-79
2022/01/29 07:55:17;;;;;;;15.25;9.82;;;3.80;69.40;;;;;;5062213;28;20210;-79
2022/01/29 07:57:45;;;;;;;14.90;10.10;;;3.80;69.50;;;;;;5066194;28;20233;-79
2022/01/29 08:00:13;;;;;;;15.35;9.93;;;3.80;69.20;;;;;;5063042;28;20234;-79
2022/01/29 08:02:40;;;;;;;15.80;8.90;;;3.80;68.80;;;;;;5064525;28;20198;-79
2022/01/29 08:05:08;;;;;;;15.82;9.68;;;3.90;68.60;;;;;;5062039;28;20281;-79
2022/01/29 08:07:35;;;;;;;14.35;10.23;;;4.00;67.80;;;;;;5064888;28;20202;-80
2022/01/29 08:10:02;;;;;;;14.93;9.65;;;4.00;67.50;;;;;;5062261;28;20227;-78
2022/01/29 08:12:29;;;;;;;14.13;9.52;;;4.00;67.30;;;;;;5059955;28;20286;-79
2022/01/29 08:14:58;;;;;;;14.20;9.10;;;4.10;67.00;;;;;;5060469;28;20233;-79
2022/01/29 08:17:24;;;;;;;13.63;8.43;;;4.10;66.30;;;;;;5057809;28;20213;-79
2022/01/29 08:19:51;;;;;;;13.27;8.93;;;4.10;66.20;;;;;;5060200;28;20226;-79
2022/01/29 08:22:19;;;;;;;12.05;7.80;;;4.10;65.70;;;;;;5062291;28;20705;-78
2022/01/29 08:24:46;;;;;;;11.38;7.50;;;4.10;65.20;;;;;;5056538;28;20589;-78
2022/01/29 08:27:13;;;;;;;13.20;7.60;;;4.10;64.50;;;;;;5064982;28;20242;-79
2022/01/29 08:29:40;;;;;;;15.00;9.23;;;4.10;64.70;;;;;;5059817;28;20210;-78
2022/01/29 08:32:09;;;;;;;11.38;8.00;;;4.20;64.30;;;;;;5067511;28;20238;-79
2022/01/29 08:34:36;;;;;;;16.15;7.82;;;4.10;64.10;;;;;;5065120;28;20241;-79
2022/01/29 08:37:04;;;;;;;11.90;7.18;;;4.20;64.20;;;;;;5061343;28;20210;-79
2022/01/29 08:39:32;;;;;;;8.90;6.70;;;4.30;63.70;;;;;;5069501;28;20358;-79
2022/01/29 08:41:59;;;;;;;12.32;8.05;;;4.30;63.70;;;;;;5072124;28;20305;-78
2022/01/29 08:44:26;;;;;;;12.95;7.32;;;4.40;63.80;;;;;;5063641;28;20211;-78
2022/01/29 08:46:53;;;;;;;11.18;7.65;;;4.40;63.80;;;;;;5062882;28;20206;-79
2022/01/29 08:49:22;;;;;;;13.02;7.63;;;4.40;63.70;;;;;;5058198;28;20279;-78
2022/01/29 08:51:49;;;;;;;9.23;6.78;;;4.50;63.90;;;;;;5060232;28;20265;-78
2022/01/29 08:54:16;;;;;;;12.80;7.15;;;4.40;63.80;;;;;;5068615;28;20218;-79
2022/01/29 08:56:43;;;;;;;11.70;7.57;;;4.50;63.80;;;;;;5063817;28;20199;-81
2022/01/29 08:59:19;;;;;;;12.77;6.82;;;4.50;63.30;;;;;;5047277;28;20236;-79
2022/01/29 09:01:46;;;;;;;10.63;6.25;;;4.50;62.60;;;;;;5048955;28;20227;-81
2022/01/29 09:04:13;;;;;;;7.97;5.75;;;4.50;62.40;;;;;;5046206;28;20219;-81
2022/01/29 09:06:41;;;;;;;9.93;6.68;;;4.60;62.00;;;;;;5065821;28;20222;-80
2022/01/29 09:09:08;;;;;;;11.07;7.35;;;4.70;61.70;;;;;;5068340;28;20206;-78
2022/01/29 09:11:35;;;;;;;9.25;6.97;;;4.70;61.60;;;;;;5067169;28;20230;-79
2022/01/29 09:14:02;;;;;;;12.15;7.43;;;4.80;61.40;;;;;;5073214;28;20223;-79
2022/01/29 09:16:29;;;;;;;10.65;6.97;;;4.90;61.00;;;;;;5076400;28;20198;-79
2022/01/29 09:18:56;;;;;;;11.30;7.47;;;4.90;60.70;;;;;;5070226;28;20199;-79
2022/01/29 09:21:23;;;;;;;13.20;7.43;;;5.00;60.80;;;;;;5053692;28;20233;-79
2022/01/29 09:23:55;;;;;;;12.07;8.05;;;5.10;60.00;;;;;;5069242;28;20278;-79
2022/01/29 09:26:22;;;;;;;11.48;8.10;;;5.10;60.00;;;;;;5066372;28;20218;-79
2022/01/29 09:28:49;;;;;;;9.65;7.18;;;5.10;60.00;;;;;;5063735;28;20317;-79
2022/01/29 09:31:16;;;;;;;12.93;7.82;;;5.20;60.00;;;;;;5062758;28;20233;-78
2022/01/29 09:33:43;;;;;;;14.65;7.78;;;5.20;60.00;;;;;;5063044;28;20249;-79
2022/01/29 09:36:10;;;;;;;12.43;7.82;;;5.20;60.00;;;;;;5061356;28;20203;-79
2022/01/29 09:38:37;;;;;;;13.35;9.15;;;5.20;60.00;;;;;;5059201;28;20248;-80
2022/01/29 09:41:06;;;;;;;12.52;8.30;;;5.10;60.30;;;;;;5087979;23;20261;-75
2022/01/29 09:43:34;;;;;;;12.38;8.43;;;5.00;61.00;;;;;;5082820;28;20300;-76
2022/01/29 09:46:02;;;;;;;12.68;7.80;;;5.00;61.40;;;;;;5074443;28;20302;-75
2022/01/29 09:48:29;;;;;;;12.95;8.93;;;4.90;61.80;;;;;;5074667;28;20236;-77
2022/01/29 09:50:57;;;;;;;11.10;7.30;;;4.90;62.60;;;;;;5074946;28;20228;-76
2022/01/29 09:53:25;;;;;;;14.13;8.63;;;4.70;64.10;;;;;;5075172;28;20569;-76
2022/01/29 09:55:53;;;;;;;12.10;7.50;;;4.70;64.10;;;;;;5075009;28;20209;-78
2022/01/29 09:58:21;;;;;;;11.38;7.40;;;4.60;65.50;;;;;;5075645;28;20209;-76
2022/01/29 10:00:48;;;;;;;12.25;7.18;;;4.80;66.10;;;;;;5081689;28;20286;-77
2022/01/29 10:03:20;;;;;;;13.00;8.48;;;4.80;66.40;;;;;;5075081;28;20279;-75
2022/01/29 10:05:50;;;;;;;12.60;7.85;;;4.90;66.40;;;;;;5089604;28;20210;-76
2022/01/29 10:08:17;;;;;;;12.15;7.03;;;5.00;65.90;;;;;;5086902;28;20279;-76
2022/01/29 10:11:02;;;;;;;15.95;7.47;;;4.90;67.00;;;;;;5089022;28;20236;-76
2022/01/29 10:13:34;;;;;;;11.63;6.70;;;5.00;67.40;;;;;;5091119;28;20221;-75
2022/01/29 10:16:07;;;;;;;10.82;6.90;;;4.80;68.40;;;;;;5082018;28;20206;-76
2022/01/29 10:18:35;;;;;;;10.80;7.90;;;4.80;69.30;;;;;;5078480;28;20202;-76
2022/01/29 10:21:14;;;;;;;11.43;7.90;;;4.80;70.00;;;;;;5085411;28;20299;-76
2022/01/29 10:23:44;;;;;;;17.23;8.10;;;4.80;70.60;;;;;;5079904;28;20227;-80
2022/01/29 10:26:30;;;;;;;13.10;6.47;;;4.80;70.40;;;;;;5087618;28;20201;-75
2022/01/29 10:29:08;;;;;;;13.00;7.15;;;4.90;70.70;;;;;;5081677;28;20198;-77
2022/01/29 10:31:42;;;;;;;12.30;7.40;;;4.90;70.40;;;;;;5081545;28;20375;-74
2022/01/29 10:34:20;;;;;;;9.90;6.07;;;4.90;70.20;;;;;;5084777;28;20236;-76
2022/01/29 10:37:08;;;;;;;10.88;6.90;;;5.10;70.30;;;;;;5089325;28;20202;-76
2022/01/29 10:39:34;;;;;;;9.63;6.70;;;5.10;69.80;;;;;;5089670;28;20206;-75
2022/01/29 10:42:15;;;;;;;9.82;6.97;;;5.20;69.60;;;;;;5090493;28;20257;-76
2022/01/29 10:44:45;;;;;;;11.90;7.57;;;5.30;68.80;;;;;;5081454;28;20264;-75
2022/01/29 10:47:13;;;;;;;10.15;6.85;;;5.40;67.80;;;;;;5075030;28;20276;-77
2022/01/29 10:49:52;;;;;;;9.00;6.97;;;5.40;67.70;;;;;;5075626;28;20226;-76
2022/01/29 10:52:19;;;;;;;11.23;7.53;;;5.40;67.70;;;;;;5081982;28;20209;-76
2022/01/29 10:54:49;;;;;;;10.30;6.45;;;5.40;67.10;;;;;;5073277;28;20236;-76
2022/01/29 10:57:19;;;;;;;10.60;7.75;;;5.30;67.80;;;;;;5080511;28;20263;-76
2022/01/29 10:59:51;;;;;;;12.10;6.93;;;5.20;67.80;;;;;;5073965;28;20696;-75
2022/01/29 11:02:20;;;;;;;13.02;7.53;;;5.30;68.20;;;;;;5073740;28;20209;-75
2022/01/29 11:04:48;;;;;;;11.60;6.45;;;5.30;67.70;;;;;;5074597;28;20206;-75
2022/01/29 11:07:26;;;;;;;10.07;6.82;;;5.30;68.10;;;;;;5080992;28;20220;-74
2022/01/29 11:10:27;;;;;;;9.98;6.70;;;5.20;68.60;;;;;;5077869;28;20662;-77
2022/01/29 11:12:55;;;;;;;10.07;6.38;;;5.30;68.40;;;;;;5086182;28;20215;-76
2022/01/29 11:18:14;;;;;;;10.25;7.00;;;5.40;68.30;;;;;;5068392;28;20653;-77
2022/01/29 11:20:41;;;;;;;10.60;6.13;;;5.30;67.80;;;;;;5075893;28;20234;-77
2022/01/29 11:23:08;;;;;;;12.80;5.78;;;5.30;67.90;;;;;;5077316;28;20284;-78
2022/01/29 11:25:36;;;;;;;6.80;5.47;;;5.40;67.20;;;;;;5075962;28;20206;-78
2022/01/29 11:28:13;;;;;;;8.18;5.90;;;5.40;66.70;;;;;;5076634;28;20292;-77
2022/01/29 11:30:44;;;;;;;9.75;5.75;;;5.40;65.80;;;;;;5076174;28;20237;-78
2022/01/29 11:33:11;;;;;;;6.53;5.10;;;5.40;64.60;;;;;;5076996;28;20201;-77
2022/01/29 11:35:51;;;;;;;7.25;5.57;;;5.40;64.60;;;;;;5075394;28;20217;-76
2022/01/29 11:38:28;;;;;;;9.15;5.25;;;5.60;64.80;;;;;;5074895;28;20217;-77
2022/01/29 11:41:01;;;;;;;6.57;5.47;;;5.60;63.20;;;;;;5075351;28;20248;-78
2022/01/29 11:43:30;;;;;;;7.55;5.25;;;5.60;62.50;;;;;;5078692;28;20220;-80
2022/01/29 11:46:04;;;;;;;5.47;4.25;;;5.50;62.20;;;;;;5082466;28;20225;-78
2022/01/29 11:48:56;;;;;;;7.30;4.55;;;5.50;61.80;;;;;;5083499;28;20213;-77
2022/01/29 11:51:42;;;;;;;7.25;4.55;;;5.50;61.20;;;;;;5080812;28;20245;-79
2022/01/29 11:54:09;;;;;;;10.00;4.88;;;5.60;60.40;;;;;;5084851;28;20229;-77
2022/01/29 11:56:38;;;;;;;6.28;4.18;;;5.70;60.00;;;;;;5083166;28;20210;-77
2022/01/29 11:59:39;;;;;;;6.82;5.10;;;5.60;59.70;;;;;;5086326;28;20221;-77
2022/01/29 12:02:40;;;;;;;8.60;4.53;;;5.60;59.80;;;;;;5055791;28;20251;-77
2022/01/29 12:05:08;;;;;;;5.30;4.40;;;5.60;59.20;;;;;;5054392;28;20190;-76
2022/01/29 12:07:55;;;;;;;4.90;4.20;;;5.70;59.10;;;;;;5058660;28;20273;-76
2022/01/29 12:10:35;;;;;;;7.10;5.10;;;5.60;58.90;;;;;;5058556;28;20226;-77
2022/01/29 12:13:11;;;;;;;4.80;4.25;;;5.70;59.30;;;;;;5069933;28;20206;-77
2022/01/29 12:15:39;;;;;;;5.75;4.15;;;5.70;58.40;;;;;;5069476;28;20222;-77
2022/01/29 12:18:39;;;;;;;5.88;4.63;;;5.70;58.90;;;;;;5062548;28;20199;-79
2022/01/29 12:21:07;;;;;;;6.18;4.35;;;5.70;59.20;;;;;;5055506;28;20293;-76
2022/01/29 12:23:50;;;;;;;5.35;4.20;;;5.80;59.10;;;;;;5045475;28;20203;-76
2022/01/29 12:26:21;;;;;;;5.30;4.22;;;5.80;59.10;;;;;;5056967;28;20209;-76
2022/01/29 12:28:52;;;;;;;5.90;4.18;;;5.70;59.30;;;;;;5057406;28;20233;-76
2022/01/29 12:31:19;;;;;;;5.07;4.05;;;5.60;59.70;;;;;;5056151;28;20230;-77
2022/01/29 12:33:47;;;;;;;6.20;3.70;;;5.60;59.90;;;;;;5073953;28;20205;-76
2022/01/29 12:36:15;;;;;;;5.47;4.07;;;5.70;59.90;;;;;;5077769;28;20301;-77
2022/01/29 12:38:45;;;;;;;5.15;4.28;;;5.70;59.90;;;;;;5077923;28;20206;-76
2022/01/29 12:41:16;;;;;;;5.07;4.03;;;5.90;60.30;;;;;;5078720;28;20883;-74
2022/01/29 12:43:52;;;;;;;5.60;3.85;;;6.00;59.50;;;;;;5079072;28;20206;-76
2022/01/29 12:46:22;;;;;;;5.53;3.85;;;6.00;59.30;;;;;;5080310;28;20236;-76
2022/01/29 12:49:00;;;;;;;5.85;4.07;;;6.00;59.20;;;;;;5085658;28;20218;-76
2022/01/29 12:51:29;;;;;;;5.40;3.45;;;6.10;60.00;;;;;;5082241;28;20232;-75
2022/01/29 12:53:57;;;;;;;5.53;4.18;;;6.20;59.70;;;;;;5078922;28;20680;-77
2022/01/29 12:56:30;;;;;;;4.85;3.70;;;6.30;58.90;;;;;;5079021;28;20268;-75
2022/01/29 12:58:57;;;;;;;5.03;3.88;;;6.30;59.30;;;;;;5083518;28;20248;-77
2022/01/29 13:01:26;;;;;;;5.72;4.78;;;6.30;59.10;;;;;;5087414;28;20233;-76
2022/01/29 13:04:01;;;;;;;5.82;3.83;;;6.30;59.10;;;;;;5088354;28;20205;-78